WRC0457 UKDD-OMDB
Flight info
| Callsign | WRC0457 |
|---|---|
| Flight time | 3h 57m |
| Altitude | 35000 |
| Route | BULIG L984 FASAD B493 OGURA G118 ER B947 GUSLI M54 ADILA N82 ADANO N77 MAGRI R654 ZAJ L124 PEKAM P574 SYZ A418 KIS L223 VUTEB |
| Aircraft | A321/M-SDE3FGHIRWY/LB1 |
Departure
| Time | 2026-04-15 09:33 |
|---|---|
| Airport | Dnipro International Airport (UKDD) |
Arrival
| Time | 2026-04-15 13:30 |
|---|---|
| Airport | Dubai International Airport (OMDB) |
| Time | Latitude | Longitude | Altitude | Speed | Heading |
|---|---|---|---|---|---|
| 2026-04-15 09:15 | 48.36771 | 35.09576 | 487 ft | 0 kts | 37° |
| 2026-04-15 09:26 | 48.36778 | 35.09583 | 487 ft | 1 kts | 37° |
| 2026-04-15 09:26 | 48.36785 | 35.09601 | 487 ft | 2 kts | 69° |
| 2026-04-15 09:27 | 48.36779 | 35.09630 | 487 ft | 3 kts | 137° |
| 2026-04-15 09:27 | 48.36747 | 35.09640 | 487 ft | 5 kts | 185° |
| 2026-04-15 09:27 | 48.36708 | 35.09617 | 487 ft | 6 kts | 215° |
| 2026-04-15 09:27 | 48.36661 | 35.09563 | 485 ft | 10 kts | 217° |
| 2026-04-15 09:28 | 48.36601 | 35.09493 | 484 ft | 12 kts | 218° |
| 2026-04-15 09:28 | 48.36527 | 35.09414 | 482 ft | 13 kts | 216° |
| 2026-04-15 09:28 | 48.36447 | 35.09324 | 481 ft | 15 kts | 216° |
| 2026-04-15 09:28 | 48.36359 | 35.09225 | 479 ft | 16 kts | 217° |
| 2026-04-15 09:29 | 48.36263 | 35.09117 | 476 ft | 17 kts | 217° |
| 2026-04-15 09:29 | 48.36160 | 35.09001 | 474 ft | 18 kts | 217° |
| 2026-04-15 09:29 | 48.36060 | 35.08886 | 475 ft | 17 kts | 221° |
| 2026-04-15 09:29 | 48.35978 | 35.08736 | 472 ft | 19 kts | 239° |
| 2026-04-15 09:30 | 48.35929 | 35.08557 | 468 ft | 11 kts | 255° |
| 2026-04-15 09:30 | 48.35912 | 35.08454 | 464 ft | 6 kts | 255° |
| 2026-04-15 09:30 | 48.35878 | 35.08369 | 460 ft | 12 kts | 220° |
| 2026-04-15 09:30 | 48.35808 | 35.08299 | 456 ft | 5 kts | 214° |
| 2026-04-15 09:31 | 48.35757 | 35.08281 | 454 ft | 9 kts | 169° |
| 2026-04-15 09:31 | 48.35728 | 35.08311 | 455 ft | 4 kts | 120° |
| 2026-04-15 09:31 | 48.35723 | 35.08342 | 456 ft | 1 kts | 95° |
| 2026-04-15 09:31 | 48.35723 | 35.08348 | 456 ft | 0 kts | 92° |
| 2026-04-15 09:32 | 48.35723 | 35.08524 | 463 ft | 41 kts | 89° |
| 2026-04-15 09:32 | 48.35725 | 35.09357 | 479 ft | 115 kts | 90° |
| 2026-04-15 09:32 | 48.35720 | 35.10893 | 496 ft | 174 kts | 88° |
| 2026-04-15 09:32 | 48.35714 | 35.12779 | 979 ft | 184 kts | 88° |
| 2026-04-15 09:33 | 48.35715 | 35.14642 | 1750 ft | 179 kts | 86° |
| 2026-04-15 09:33 | 48.35722 | 35.16502 | 2217 ft | 177 kts | 86° |
| 2026-04-15 09:33 | 48.35734 | 35.18381 | 2529 ft | 186 kts | 86° |
| 2026-04-15 09:33 | 48.35744 | 35.20397 | 2796 ft | 199 kts | 86° |
| 2026-04-15 09:34 | 48.35749 | 35.22535 | 3077 ft | 213 kts | 87° |
| 2026-04-15 09:34 | 48.35693 | 35.24814 | 3352 ft | 229 kts | 98° |
| 2026-04-15 09:34 | 48.34914 | 35.26950 | 3575 ft | 246 kts | 140° |
| 2026-04-15 09:34 | 48.33344 | 35.27986 | 3892 ft | 253 kts | 179° |
| 2026-04-15 09:35 | 48.31551 | 35.28006 | 4312 ft | 265 kts | 181° |
| 2026-04-15 09:35 | 48.29728 | 35.28688 | 4825 ft | 280 kts | 156° |
| 2026-04-15 09:35 | 48.28035 | 35.30152 | 5550 ft | 283 kts | 145° |
| 2026-04-15 09:35 | 48.26658 | 35.32199 | 6221 ft | 287 kts | 124° |
| 2026-04-15 09:36 | 48.25691 | 35.34822 | 6912 ft | 289 kts | 114° |
| 2026-04-15 09:36 | 48.24844 | 35.37555 | 7552 ft | 293 kts | 114° |
| 2026-04-15 09:36 | 48.23987 | 35.40332 | 8210 ft | 297 kts | 114° |
| 2026-04-15 09:36 | 48.23102 | 35.43132 | 8866 ft | 300 kts | 114° |
| 2026-04-15 09:37 | 48.22187 | 35.45964 | 9496 ft | 304 kts | 115° |
| 2026-04-15 09:37 | 48.21257 | 35.48803 | 10100 ft | 308 kts | 115° |
| 2026-04-15 09:37 | 48.20304 | 35.51694 | 10626 ft | 315 kts | 115° |
| 2026-04-15 09:37 | 48.19314 | 35.54682 | 10904 ft | 330 kts | 115° |
| 2026-04-15 09:38 | 48.18274 | 35.57812 | 11184 ft | 345 kts | 115° |
| 2026-04-15 09:38 | 48.17169 | 35.61127 | 11461 ft | 359 kts | 115° |
| 2026-04-15 09:38 | 48.16053 | 35.64466 | 11907 ft | 367 kts | 115° |
| 2026-04-15 09:38 | 48.14900 | 35.67916 | 12515 ft | 369 kts | 116° |
| 2026-04-15 09:39 | 48.13758 | 35.71334 | 13120 ft | 371 kts | 116° |
| 2026-04-15 09:39 | 48.12607 | 35.74773 | 13700 ft | 373 kts | 116° |
| 2026-04-15 09:39 | 48.11450 | 35.78217 | 14264 ft | 375 kts | 116° |
| 2026-04-15 09:39 | 48.10284 | 35.81685 | 14835 ft | 377 kts | 116° |
| 2026-04-15 09:40 | 48.09100 | 35.85201 | 15381 ft | 380 kts | 116° |
| 2026-04-15 09:40 | 48.07916 | 35.88710 | 15916 ft | 382 kts | 116° |
| 2026-04-15 09:40 | 48.06719 | 35.92250 | 16457 ft | 384 kts | 116° |
| 2026-04-15 09:40 | 48.05512 | 35.95815 | 17008 ft | 385 kts | 116° |
| 2026-04-15 09:41 | 48.04300 | 35.99385 | 17546 ft | 386 kts | 117° |
| 2026-04-15 09:41 | 48.03100 | 36.02916 | 18077 ft | 387 kts | 117° |
| 2026-04-15 09:41 | 48.01870 | 36.06529 | 18581 ft | 389 kts | 117° |
| 2026-04-15 09:41 | 48.00650 | 36.10102 | 19021 ft | 392 kts | 116° |
| 2026-04-15 09:42 | 47.99402 | 36.13755 | 19393 ft | 397 kts | 116° |
| 2026-04-15 09:42 | 47.98150 | 36.17432 | 19759 ft | 402 kts | 116° |
| 2026-04-15 09:42 | 47.96978 | 36.21234 | 20119 ft | 406 kts | 111° |
| 2026-04-15 09:42 | 47.95961 | 36.25202 | 20475 ft | 410 kts | 107° |
| 2026-04-15 09:43 | 47.95090 | 36.29234 | 20852 ft | 414 kts | 106° |
| 2026-04-15 09:43 | 47.94230 | 36.33329 | 21251 ft | 417 kts | 105° |
| 2026-04-15 09:43 | 47.93367 | 36.37437 | 21640 ft | 420 kts | 105° |
| 2026-04-15 09:43 | 47.92494 | 36.41575 | 22008 ft | 423 kts | 105° |
| 2026-04-15 09:44 | 47.91602 | 36.45784 | 22358 ft | 427 kts | 105° |
| 2026-04-15 09:44 | 47.90713 | 36.49964 | 22720 ft | 430 kts | 105° |
| 2026-04-15 09:44 | 47.89805 | 36.54222 | 23082 ft | 433 kts | 105° |
| 2026-04-15 09:44 | 47.88874 | 36.58514 | 23462 ft | 435 kts | 105° |
| 2026-04-15 09:45 | 47.87947 | 36.62766 | 23814 ft | 437 kts | 105° |
| 2026-04-15 09:45 | 47.87010 | 36.67075 | 24138 ft | 440 kts | 106° |
| 2026-04-15 09:45 | 47.86072 | 36.71417 | 24464 ft | 443 kts | 105° |
| 2026-04-15 09:45 | 47.85135 | 36.75751 | 24772 ft | 445 kts | 105° |
| 2026-04-15 09:46 | 47.84181 | 36.80161 | 25070 ft | 448 kts | 105° |
| 2026-04-15 09:46 | 47.83228 | 36.84555 | 25374 ft | 450 kts | 105° |
| 2026-04-15 09:46 | 47.82266 | 36.88984 | 25677 ft | 453 kts | 105° |
| 2026-04-15 09:46 | 47.81293 | 36.93452 | 25964 ft | 455 kts | 106° |
| 2026-04-15 09:47 | 47.80329 | 36.97870 | 26241 ft | 458 kts | 106° |
| 2026-04-15 09:47 | 47.79334 | 37.02407 | 26510 ft | 460 kts | 106° |
| 2026-04-15 09:47 | 47.78349 | 37.06887 | 26777 ft | 462 kts | 105° |
| 2026-04-15 09:47 | 47.77350 | 37.11429 | 27013 ft | 465 kts | 105° |
| 2026-04-15 09:48 | 47.76342 | 37.16002 | 27260 ft | 468 kts | 105° |
| 2026-04-15 09:48 | 47.75330 | 37.20605 | 27519 ft | 469 kts | 105° |
| 2026-04-15 09:48 | 47.74428 | 37.25245 | 27765 ft | 471 kts | 102° |
| 2026-04-15 09:48 | 47.73604 | 37.29941 | 28042 ft | 472 kts | 102° |
| 2026-04-15 09:49 | 47.72796 | 37.34620 | 28281 ft | 474 kts | 102° |
| 2026-04-15 09:49 | 47.71969 | 37.39407 | 28526 ft | 476 kts | 101° |
| 2026-04-15 09:49 | 47.71153 | 37.44095 | 28740 ft | 478 kts | 102° |
| 2026-04-15 09:49 | 47.70309 | 37.48921 | 28965 ft | 480 kts | 101° |
| 2026-04-15 09:50 | 47.69482 | 37.53641 | 29198 ft | 481 kts | 101° |
| 2026-04-15 09:50 | 47.68631 | 37.58481 | 29499 ft | 481 kts | 101° |
| 2026-04-15 09:50 | 47.67787 | 37.63259 | 29818 ft | 480 kts | 101° |
| 2026-04-15 09:50 | 47.66945 | 37.68016 | 30126 ft | 480 kts | 102° |
| 2026-04-15 09:51 | 47.66103 | 37.72773 | 30418 ft | 479 kts | 102° |
| 2026-04-15 09:51 | 47.65259 | 37.77519 | 30683 ft | 479 kts | 102° |
| 2026-04-15 09:51 | 47.64411 | 37.82280 | 30921 ft | 478 kts | 102° |
| 2026-04-15 09:51 | 47.63565 | 37.87024 | 31194 ft | 477 kts | 102° |
| 2026-04-15 09:52 | 47.62725 | 37.91715 | 31458 ft | 476 kts | 102° |
| 2026-04-15 09:52 | 47.61868 | 37.96479 | 31717 ft | 475 kts | 102° |
| 2026-04-15 09:52 | 47.61018 | 38.01184 | 31945 ft | 475 kts | 102° |
| 2026-04-15 09:52 | 47.60171 | 38.05861 | 32187 ft | 474 kts | 102° |
| 2026-04-15 09:53 | 47.59319 | 38.10569 | 32458 ft | 472 kts | 103° |
| 2026-04-15 09:53 | 47.58466 | 38.15255 | 32716 ft | 471 kts | 103° |
| 2026-04-15 09:53 | 47.57624 | 38.19868 | 32964 ft | 469 kts | 103° |
| 2026-04-15 09:53 | 47.56768 | 38.24519 | 33213 ft | 468 kts | 103° |
| 2026-04-15 09:54 | 47.55922 | 38.29134 | 33419 ft | 467 kts | 103° |
| 2026-04-15 09:54 | 47.55064 | 38.33772 | 33608 ft | 467 kts | 104° |
| 2026-04-15 09:54 | 47.54201 | 38.38338 | 33814 ft | 466 kts | 104° |
| 2026-04-15 09:54 | 47.53317 | 38.42952 | 33986 ft | 467 kts | 104° |
| 2026-04-15 09:55 | 47.52431 | 38.47559 | 34120 ft | 468 kts | 105° |
| 2026-04-15 09:55 | 47.51539 | 38.52190 | 34267 ft | 468 kts | 105° |
| 2026-04-15 09:55 | 47.50649 | 38.56784 | 34453 ft | 467 kts | 105° |
| 2026-04-15 09:55 | 47.49755 | 38.61391 | 34567 ft | 467 kts | 105° |
| 2026-04-15 09:56 | 47.48860 | 38.66001 | 34693 ft | 468 kts | 105° |
| 2026-04-15 09:56 | 47.47974 | 38.70564 | 34825 ft | 468 kts | 105° |
| 2026-04-15 09:56 | 47.46181 | 38.79779 | 35105 ft | 467 kts | 105° |
| 2026-04-15 09:57 | 47.45277 | 38.84397 | 35139 ft | 467 kts | 105° |
| 2026-04-15 09:57 | 47.43476 | 38.93574 | 35149 ft | 466 kts | 106° |
| 2026-04-15 09:58 | 47.41676 | 39.02704 | 35152 ft | 465 kts | 106° |
| 2026-04-15 09:58 | 47.39861 | 39.11852 | 35159 ft | 465 kts | 106° |
| 2026-04-15 09:59 | 47.38052 | 39.20921 | 35157 ft | 464 kts | 106° |
| 2026-04-15 09:59 | 47.36220 | 39.30060 | 35155 ft | 464 kts | 106° |
| 2026-04-15 10:00 | 47.34407 | 39.39068 | 35150 ft | 463 kts | 106° |
| 2026-04-15 10:00 | 47.32577 | 39.48127 | 35150 ft | 462 kts | 106° |
| 2026-04-15 10:01 | 47.30734 | 39.57205 | 35150 ft | 462 kts | 106° |
| 2026-04-15 10:01 | 47.28896 | 39.66217 | 35150 ft | 461 kts | 107° |
| 2026-04-15 10:02 | 47.27054 | 39.75234 | 35147 ft | 461 kts | 107° |
| 2026-04-15 10:02 | 47.25204 | 39.84232 | 35152 ft | 459 kts | 107° |
| 2026-04-15 10:03 | 47.23365 | 39.93126 | 35143 ft | 458 kts | 107° |
| 2026-04-15 10:03 | 47.21511 | 40.02038 | 35144 ft | 457 kts | 107° |
| 2026-04-15 10:04 | 47.19646 | 40.10959 | 35143 ft | 456 kts | 107° |
| 2026-04-15 10:04 | 47.17791 | 40.19793 | 35145 ft | 457 kts | 107° |
| 2026-04-15 10:05 | 47.15911 | 40.28672 | 35141 ft | 457 kts | 109° |
| 2026-04-15 10:05 | 47.13044 | 40.36926 | 35138 ft | 456 kts | 125° |
| 2026-04-15 10:06 | 47.08702 | 40.43640 | 35137 ft | 456 kts | 142° |
| 2026-04-15 10:06 | 47.03243 | 40.48291 | 35133 ft | 455 kts | 158° |
| 2026-04-15 10:07 | 46.97219 | 40.50930 | 35135 ft | 454 kts | 165° |
| 2026-04-15 10:07 | 46.91107 | 40.53268 | 35133 ft | 455 kts | 165° |
| 2026-04-15 10:08 | 46.84963 | 40.55646 | 35136 ft | 457 kts | 165° |
| 2026-04-15 10:08 | 46.78854 | 40.58030 | 35141 ft | 458 kts | 165° |
| 2026-04-15 10:09 | 46.72692 | 40.60440 | 35146 ft | 458 kts | 165° |
| 2026-04-15 10:09 | 46.66555 | 40.62878 | 35149 ft | 459 kts | 163° |
| 2026-04-15 10:10 | 46.60566 | 40.66016 | 35147 ft | 459 kts | 158° |
| 2026-04-15 10:10 | 46.54868 | 40.70132 | 35153 ft | 461 kts | 151° |
| 2026-04-15 10:11 | 46.49480 | 40.75177 | 35159 ft | 462 kts | 145° |
| 2026-04-15 10:11 | 46.44247 | 40.80526 | 35155 ft | 461 kts | 145° |
| 2026-04-15 10:12 | 46.39026 | 40.85834 | 35159 ft | 462 kts | 145° |
| 2026-04-15 10:12 | 46.33785 | 40.91139 | 35163 ft | 462 kts | 145° |
| 2026-04-15 10:13 | 46.28532 | 40.96439 | 35160 ft | 462 kts | 145° |
| 2026-04-15 10:13 | 46.23271 | 41.01738 | 35166 ft | 461 kts | 146° |
| 2026-04-15 10:14 | 46.18026 | 41.07008 | 35175 ft | 461 kts | 146° |
| 2026-04-15 10:14 | 46.12780 | 41.12265 | 35175 ft | 462 kts | 146° |
| 2026-04-15 10:15 | 46.07511 | 41.17531 | 35179 ft | 462 kts | 146° |
| 2026-04-15 10:15 | 46.02231 | 41.22795 | 35179 ft | 462 kts | 146° |
| 2026-04-15 10:16 | 45.96975 | 41.28022 | 35179 ft | 463 kts | 146° |
| 2026-04-15 10:16 | 45.91679 | 41.33277 | 35183 ft | 464 kts | 146° |
| 2026-04-15 10:17 | 45.86362 | 41.38522 | 35184 ft | 464 kts | 146° |
| 2026-04-15 10:17 | 45.81063 | 41.43742 | 35183 ft | 465 kts | 145° |
| 2026-04-15 10:18 | 45.75761 | 41.49062 | 35183 ft | 465 kts | 145° |
| 2026-04-15 10:18 | 45.70496 | 41.54351 | 35184 ft | 465 kts | 145° |
| 2026-04-15 10:19 | 45.65209 | 41.59643 | 35187 ft | 467 kts | 145° |
| 2026-04-15 10:19 | 45.59895 | 41.64946 | 35184 ft | 467 kts | 145° |
| 2026-04-15 10:20 | 45.54568 | 41.70271 | 35183 ft | 467 kts | 146° |
| 2026-04-15 10:20 | 45.49231 | 41.75472 | 35185 ft | 467 kts | 147° |
| 2026-04-15 10:21 | 45.43821 | 41.80602 | 35182 ft | 468 kts | 147° |
| 2026-04-15 10:21 | 45.38431 | 41.85703 | 35182 ft | 468 kts | 147° |
| 2026-04-15 10:22 | 45.33033 | 41.90810 | 35178 ft | 468 kts | 147° |
| 2026-04-15 10:22 | 45.27604 | 41.95934 | 35173 ft | 468 kts | 147° |
| 2026-04-15 10:23 | 45.22214 | 42.01009 | 35171 ft | 469 kts | 147° |
| 2026-04-15 10:23 | 45.16796 | 42.06099 | 35178 ft | 470 kts | 147° |
| 2026-04-15 10:24 | 45.11201 | 42.10851 | 35184 ft | 469 kts | 153° |
| 2026-04-15 10:24 | 45.05278 | 42.14652 | 35183 ft | 468 kts | 160° |
| 2026-04-15 10:25 | 44.99170 | 42.17824 | 35192 ft | 468 kts | 161° |
| 2026-04-15 10:25 | 44.93074 | 42.20982 | 35194 ft | 469 kts | 161° |
| 2026-04-15 10:26 | 44.86975 | 42.24147 | 35192 ft | 469 kts | 161° |
| 2026-04-15 10:26 | 44.80852 | 42.27353 | 35190 ft | 470 kts | 160° |
| 2026-04-15 10:27 | 44.74740 | 42.30628 | 35195 ft | 471 kts | 160° |
| 2026-04-15 10:27 | 44.68658 | 42.33875 | 35191 ft | 471 kts | 160° |
| 2026-04-15 10:28 | 44.62520 | 42.37135 | 35188 ft | 471 kts | 160° |
| 2026-04-15 10:28 | 44.56413 | 42.40374 | 35187 ft | 472 kts | 160° |
| 2026-04-15 10:29 | 44.50284 | 42.43628 | 35184 ft | 472 kts | 160° |
| 2026-04-15 10:29 | 44.44169 | 42.46867 | 35184 ft | 472 kts | 160° |
| 2026-04-15 10:30 | 44.38051 | 42.50099 | 35183 ft | 473 kts | 160° |
| 2026-04-15 10:30 | 44.31894 | 42.53343 | 35184 ft | 473 kts | 160° |
| 2026-04-15 10:31 | 44.25735 | 42.56578 | 35185 ft | 474 kts | 160° |
| 2026-04-15 10:31 | 44.19587 | 42.59817 | 35186 ft | 474 kts | 159° |
| 2026-04-15 10:32 | 44.13567 | 42.63399 | 35182 ft | 474 kts | 157° |
| 2026-04-15 10:32 | 44.07510 | 42.67058 | 35176 ft | 474 kts | 158° |
| 2026-04-15 10:33 | 44.01481 | 42.70703 | 35168 ft | 475 kts | 158° |
| 2026-04-15 10:33 | 43.95420 | 42.74331 | 35163 ft | 475 kts | 158° |
| 2026-04-15 10:34 | 43.89339 | 42.77950 | 35169 ft | 476 kts | 159° |
| 2026-04-15 10:34 | 43.83160 | 42.81153 | 35148 ft | 475 kts | 162° |
| 2026-04-15 10:35 | 43.76963 | 42.84268 | 35142 ft | 475 kts | 161° |
| 2026-04-15 10:35 | 43.70780 | 42.87374 | 35147 ft | 475 kts | 161° |
| 2026-04-15 10:36 | 43.64564 | 42.90490 | 35144 ft | 476 kts | 161° |
| 2026-04-15 10:36 | 43.58385 | 42.93584 | 35120 ft | 476 kts | 162° |
| 2026-04-15 10:37 | 43.52159 | 42.96691 | 35089 ft | 477 kts | 162° |
| 2026-04-15 10:37 | 43.45909 | 42.99808 | 35041 ft | 476 kts | 161° |
| 2026-04-15 10:38 | 43.39762 | 43.03102 | 35038 ft | 477 kts | 160° |
| 2026-04-15 10:38 | 43.33610 | 43.06455 | 35051 ft | 477 kts | 160° |
| 2026-04-15 10:39 | 43.27468 | 43.09773 | 35041 ft | 477 kts | 160° |
| 2026-04-15 10:39 | 43.21293 | 43.13088 | 35063 ft | 477 kts | 160° |
| 2026-04-15 10:40 | 43.15122 | 43.16391 | 35064 ft | 478 kts | 160° |
| 2026-04-15 10:40 | 43.08949 | 43.19685 | 35060 ft | 478 kts | 160° |
| 2026-04-15 10:41 | 43.02758 | 43.22983 | 35024 ft | 479 kts | 160° |
| 2026-04-15 10:41 | 42.96519 | 43.26242 | 35013 ft | 479 kts | 161° |
| 2026-04-15 10:42 | 42.90367 | 43.29658 | 35038 ft | 481 kts | 155° |
| 2026-04-15 10:42 | 42.84444 | 43.33815 | 35081 ft | 481 kts | 153° |
| 2026-04-15 10:43 | 42.78515 | 43.38068 | 35142 ft | 481 kts | 153° |
| 2026-04-15 10:43 | 42.72600 | 43.42306 | 35182 ft | 482 kts | 153° |
| 2026-04-15 10:44 | 42.66682 | 43.46531 | 35195 ft | 482 kts | 153° |
| 2026-04-15 10:44 | 42.60743 | 43.50766 | 35202 ft | 483 kts | 153° |
| 2026-04-15 10:45 | 42.54811 | 43.54986 | 35179 ft | 483 kts | 153° |
| 2026-04-15 10:45 | 42.48873 | 43.59200 | 35172 ft | 483 kts | 153° |
| 2026-04-15 10:46 | 42.42927 | 43.63411 | 35162 ft | 483 kts | 153° |
| 2026-04-15 10:46 | 42.36962 | 43.67640 | 35164 ft | 484 kts | 154° |
| 2026-04-15 10:47 | 42.31030 | 43.71852 | 35166 ft | 484 kts | 154° |
| 2026-04-15 10:47 | 42.25081 | 43.76048 | 35174 ft | 484 kts | 154° |
| 2026-04-15 10:48 | 42.19095 | 43.80254 | 35196 ft | 485 kts | 154° |
| 2026-04-15 10:48 | 42.13140 | 43.84425 | 35196 ft | 485 kts | 154° |
| 2026-04-15 10:49 | 42.07157 | 43.88606 | 35197 ft | 485 kts | 154° |
| 2026-04-15 10:49 | 42.01188 | 43.92771 | 35208 ft | 486 kts | 154° |
| 2026-04-15 10:50 | 41.95172 | 43.96957 | 35204 ft | 486 kts | 154° |
| 2026-04-15 10:50 | 41.89200 | 44.01104 | 35171 ft | 486 kts | 154° |
| 2026-04-15 10:51 | 41.83197 | 44.05246 | 35132 ft | 487 kts | 154° |
| 2026-04-15 10:51 | 41.77169 | 44.09403 | 35088 ft | 487 kts | 154° |
| 2026-04-15 10:52 | 41.71184 | 44.13531 | 35076 ft | 488 kts | 154° |
| 2026-04-15 10:52 | 41.65118 | 44.17708 | 35104 ft | 489 kts | 155° |
| 2026-04-15 10:53 | 41.59093 | 44.21845 | 35151 ft | 490 kts | 154° |
| 2026-04-15 10:53 | 41.53052 | 44.26076 | 35183 ft | 490 kts | 153° |
| 2026-04-15 10:54 | 41.47060 | 44.30390 | 35217 ft | 490 kts | 153° |
| 2026-04-15 10:54 | 41.41070 | 44.34683 | 35215 ft | 490 kts | 153° |
| 2026-04-15 10:55 | 41.35106 | 44.38932 | 35205 ft | 491 kts | 153° |
| 2026-04-15 10:55 | 41.29062 | 44.43229 | 35207 ft | 491 kts | 153° |
| 2026-04-15 10:56 | 41.23032 | 44.47501 | 35210 ft | 492 kts | 154° |
| 2026-04-15 10:56 | 41.17015 | 44.51751 | 35207 ft | 492 kts | 154° |
| 2026-04-15 10:57 | 41.10964 | 44.55955 | 35199 ft | 493 kts | 154° |
| 2026-04-15 10:57 | 41.01862 | 44.62251 | 35178 ft | 493 kts | 154° |
| 2026-04-15 10:58 | 40.95808 | 44.66439 | 35153 ft | 494 kts | 155° |
| 2026-04-15 10:58 | 40.89707 | 44.70673 | 35131 ft | 494 kts | 155° |
| 2026-04-15 10:59 | 40.83637 | 44.74848 | 35116 ft | 494 kts | 155° |
| 2026-04-15 10:59 | 40.77537 | 44.79025 | 35122 ft | 495 kts | 155° |
| 2026-04-15 11:00 | 40.71446 | 44.83192 | 35136 ft | 496 kts | 155° |
| 2026-04-15 11:00 | 40.65348 | 44.87361 | 35137 ft | 495 kts | 155° |
| 2026-04-15 11:01 | 40.59221 | 44.91537 | 35149 ft | 496 kts | 155° |
| 2026-04-15 11:01 | 40.53193 | 44.96009 | 35140 ft | 498 kts | 149° |
| 2026-04-15 11:02 | 40.47574 | 45.01346 | 35144 ft | 501 kts | 143° |
| 2026-04-15 11:02 | 40.42105 | 45.06932 | 35132 ft | 501 kts | 144° |
| 2026-04-15 11:03 | 40.36604 | 45.12519 | 35141 ft | 501 kts | 144° |
| 2026-04-15 11:03 | 40.31110 | 45.18060 | 35162 ft | 500 kts | 144° |
| 2026-04-15 11:04 | 40.25574 | 45.23625 | 35140 ft | 501 kts | 144° |
| 2026-04-15 11:04 | 40.20069 | 45.29151 | 35175 ft | 501 kts | 144° |
| 2026-04-15 11:05 | 40.14529 | 45.34696 | 35151 ft | 502 kts | 144° |
| 2026-04-15 11:05 | 40.09024 | 45.40198 | 35146 ft | 502 kts | 144° |
| 2026-04-15 11:06 | 40.03461 | 45.45743 | 35125 ft | 502 kts | 144° |
| 2026-04-15 11:06 | 39.97934 | 45.51269 | 35095 ft | 504 kts | 143° |
| 2026-04-15 11:07 | 39.92433 | 45.56950 | 35107 ft | 505 kts | 143° |
| 2026-04-15 11:07 | 39.86961 | 45.62590 | 35104 ft | 505 kts | 143° |
| 2026-04-15 11:08 | 39.81456 | 45.68226 | 35124 ft | 504 kts | 143° |
| 2026-04-15 11:08 | 39.75944 | 45.73885 | 35119 ft | 506 kts | 144° |
| 2026-04-15 11:09 | 39.70409 | 45.79536 | 35112 ft | 505 kts | 144° |
| 2026-04-15 11:09 | 39.64688 | 45.84782 | 35136 ft | 503 kts | 151° |
| 2026-04-15 11:10 | 39.58668 | 45.89241 | 35145 ft | 502 kts | 154° |
| 2026-04-15 11:10 | 39.52554 | 45.93643 | 35152 ft | 503 kts | 154° |
| 2026-04-15 11:11 | 39.46468 | 45.98034 | 35182 ft | 503 kts | 154° |
| 2026-04-15 11:11 | 39.40376 | 46.02436 | 35145 ft | 503 kts | 154° |
| 2026-04-15 11:12 | 39.34261 | 46.06844 | 35133 ft | 505 kts | 154° |
| 2026-04-15 11:12 | 39.28114 | 46.11269 | 35094 ft | 505 kts | 154° |
| 2026-04-15 11:13 | 39.22024 | 46.15646 | 35100 ft | 505 kts | 154° |
| 2026-04-15 11:13 | 39.15879 | 46.20054 | 35104 ft | 505 kts | 154° |
| 2026-04-15 11:14 | 39.09767 | 46.24425 | 35105 ft | 505 kts | 154° |
| 2026-04-15 11:14 | 39.03642 | 46.28802 | 35103 ft | 505 kts | 155° |
| 2026-04-15 11:15 | 38.97479 | 46.33185 | 35106 ft | 505 kts | 154° |
| 2026-04-15 11:15 | 38.91399 | 46.37590 | 35116 ft | 507 kts | 152° |
| 2026-04-15 11:16 | 38.85564 | 46.42746 | 35131 ft | 509 kts | 146° |
| 2026-04-15 11:16 | 38.79921 | 46.48179 | 35107 ft | 509 kts | 145° |
| 2026-04-15 11:17 | 38.74283 | 46.53603 | 35094 ft | 508 kts | 146° |
| 2026-04-15 11:17 | 38.68596 | 46.59043 | 35092 ft | 509 kts | 146° |
| 2026-04-15 11:18 | 38.62929 | 46.64448 | 35095 ft | 509 kts | 146° |
| 2026-04-15 11:18 | 38.57292 | 46.69834 | 35098 ft | 508 kts | 146° |
| 2026-04-15 11:19 | 38.51634 | 46.75216 | 35099 ft | 508 kts | 147° |
| 2026-04-15 11:19 | 38.45969 | 46.80573 | 35100 ft | 508 kts | 147° |
| 2026-04-15 11:20 | 38.40306 | 46.85904 | 35095 ft | 508 kts | 147° |
| 2026-04-15 11:20 | 38.34643 | 46.91235 | 35104 ft | 508 kts | 147° |
| 2026-04-15 11:21 | 38.28971 | 46.96584 | 35109 ft | 509 kts | 146° |
| 2026-04-15 11:21 | 38.23274 | 47.01949 | 35103 ft | 510 kts | 147° |
| 2026-04-15 11:22 | 38.17587 | 47.07293 | 35092 ft | 510 kts | 147° |
| 2026-04-15 11:22 | 38.11903 | 47.12619 | 35095 ft | 509 kts | 147° |
| 2026-04-15 11:23 | 38.06210 | 47.17940 | 35102 ft | 509 kts | 147° |
| 2026-04-15 11:23 | 38.00525 | 47.23242 | 35106 ft | 509 kts | 147° |
| 2026-04-15 11:24 | 37.94818 | 47.28552 | 35099 ft | 509 kts | 148° |
| 2026-04-15 11:24 | 37.89097 | 47.33869 | 35088 ft | 509 kts | 148° |
| 2026-04-15 11:25 | 37.83396 | 47.39142 | 35069 ft | 509 kts | 148° |
| 2026-04-15 11:25 | 37.77690 | 47.44420 | 35041 ft | 510 kts | 148° |
| 2026-04-15 11:26 | 37.71995 | 47.49690 | 35009 ft | 509 kts | 148° |
| 2026-04-15 11:26 | 37.66306 | 47.54940 | 35028 ft | 509 kts | 147° |
| 2026-04-15 11:27 | 37.60594 | 47.60207 | 35059 ft | 509 kts | 147° |
| 2026-04-15 11:27 | 37.54882 | 47.65463 | 35088 ft | 508 kts | 148° |
| 2026-04-15 11:28 | 37.49204 | 47.70701 | 35111 ft | 508 kts | 148° |
| 2026-04-15 11:28 | 37.43522 | 47.75917 | 35120 ft | 508 kts | 148° |
| 2026-04-15 11:29 | 37.37795 | 47.81169 | 35122 ft | 508 kts | 148° |
| 2026-04-15 11:29 | 37.32098 | 47.86386 | 35118 ft | 507 kts | 148° |
| 2026-04-15 11:30 | 37.26413 | 47.91571 | 35115 ft | 506 kts | 149° |
| 2026-04-15 11:30 | 37.20722 | 47.96749 | 35112 ft | 507 kts | 149° |
| 2026-04-15 11:31 | 37.15019 | 48.01931 | 35109 ft | 506 kts | 148° |
| 2026-04-15 11:31 | 37.09347 | 48.07073 | 35108 ft | 506 kts | 148° |
| 2026-04-15 11:32 | 37.03656 | 48.12222 | 35108 ft | 506 kts | 148° |
| 2026-04-15 11:32 | 36.97950 | 48.17381 | 35108 ft | 504 kts | 149° |
| 2026-04-15 11:33 | 36.92269 | 48.22500 | 35105 ft | 503 kts | 149° |
| 2026-04-15 11:33 | 36.86609 | 48.27579 | 35109 ft | 504 kts | 149° |
| 2026-04-15 11:34 | 36.80899 | 48.32690 | 35106 ft | 507 kts | 148° |
| 2026-04-15 11:34 | 36.75441 | 48.38242 | 35107 ft | 510 kts | 141° |
| 2026-04-15 11:35 | 36.70295 | 48.44320 | 35102 ft | 511 kts | 140° |
| 2026-04-15 11:35 | 36.65143 | 48.50440 | 35095 ft | 512 kts | 140° |
| 2026-04-15 11:36 | 36.59995 | 48.56506 | 35093 ft | 513 kts | 140° |
| 2026-04-15 11:36 | 36.54781 | 48.62628 | 35090 ft | 514 kts | 140° |
| 2026-04-15 11:37 | 36.49617 | 48.68693 | 35096 ft | 514 kts | 141° |
| 2026-04-15 11:37 | 36.44416 | 48.74804 | 35106 ft | 515 kts | 141° |
| 2026-04-15 11:38 | 36.39223 | 48.80877 | 35109 ft | 514 kts | 141° |
| 2026-04-15 11:38 | 36.34007 | 48.86959 | 35095 ft | 514 kts | 141° |
| 2026-04-15 11:39 | 36.28785 | 48.93025 | 35092 ft | 517 kts | 141° |
| 2026-04-15 11:39 | 36.23557 | 48.99094 | 35093 ft | 516 kts | 141° |
| 2026-04-15 11:40 | 36.18309 | 49.05177 | 35087 ft | 517 kts | 141° |
| 2026-04-15 11:40 | 36.13071 | 49.11237 | 35085 ft | 518 kts | 141° |
| 2026-04-15 11:41 | 36.07826 | 49.17284 | 35084 ft | 519 kts | 141° |
| 2026-04-15 11:41 | 36.02535 | 49.23381 | 35080 ft | 518 kts | 141° |
| 2026-04-15 11:42 | 35.97272 | 49.29431 | 35083 ft | 519 kts | 141° |
| 2026-04-15 11:42 | 35.91995 | 49.35482 | 35079 ft | 518 kts | 141° |
| 2026-04-15 11:43 | 35.86753 | 49.41473 | 35078 ft | 517 kts | 141° |
| 2026-04-15 11:43 | 35.81461 | 49.47492 | 35077 ft | 516 kts | 141° |
| 2026-04-15 11:44 | 35.76176 | 49.53505 | 35070 ft | 517 kts | 141° |
| 2026-04-15 11:44 | 35.70924 | 49.59481 | 35071 ft | 519 kts | 142° |
| 2026-04-15 11:45 | 35.65612 | 49.65521 | 35068 ft | 519 kts | 142° |
| 2026-04-15 11:45 | 35.60360 | 49.71511 | 35063 ft | 518 kts | 142° |
| 2026-04-15 11:46 | 35.55089 | 49.77498 | 35062 ft | 517 kts | 142° |
| 2026-04-15 11:46 | 35.49807 | 49.83469 | 35060 ft | 517 kts | 142° |
| 2026-04-15 11:47 | 35.44514 | 49.89440 | 35058 ft | 517 kts | 142° |
| 2026-04-15 11:47 | 35.39233 | 49.95387 | 35063 ft | 518 kts | 142° |
| 2026-04-15 11:48 | 35.33903 | 50.01374 | 35069 ft | 520 kts | 142° |
| 2026-04-15 11:48 | 35.28575 | 50.07350 | 35067 ft | 518 kts | 143° |
| 2026-04-15 11:49 | 35.23293 | 50.13260 | 35063 ft | 518 kts | 142° |
| 2026-04-15 11:49 | 35.17988 | 50.19184 | 35061 ft | 519 kts | 142° |
| 2026-04-15 11:50 | 35.12649 | 50.25136 | 35057 ft | 520 kts | 142° |
| 2026-04-15 11:50 | 35.07282 | 50.31032 | 35048 ft | 517 kts | 145° |
| 2026-04-15 11:51 | 35.01498 | 50.36113 | 35040 ft | 510 kts | 155° |
| 2026-04-15 11:51 | 34.95271 | 50.39992 | 35024 ft | 498 kts | 166° |
| 2026-04-15 11:52 | 34.88788 | 50.42845 | 35021 ft | 494 kts | 169° |
| 2026-04-15 11:52 | 34.82312 | 50.45543 | 35025 ft | 497 kts | 169° |
| 2026-04-15 11:53 | 34.75766 | 50.48341 | 35025 ft | 496 kts | 169° |
| 2026-04-15 11:53 | 34.69261 | 50.51131 | 35028 ft | 498 kts | 169° |
| 2026-04-15 11:54 | 34.62755 | 50.53924 | 35037 ft | 496 kts | 168° |
| 2026-04-15 11:54 | 34.56260 | 50.56698 | 35044 ft | 497 kts | 169° |
| 2026-04-15 11:55 | 34.49719 | 50.59493 | 35060 ft | 496 kts | 169° |
| 2026-04-15 11:55 | 34.43226 | 50.62259 | 35074 ft | 496 kts | 169° |
| 2026-04-15 11:56 | 34.36705 | 50.65035 | 35081 ft | 495 kts | 170° |
| 2026-04-15 11:56 | 34.30265 | 50.67798 | 35106 ft | 494 kts | 170° |
| 2026-04-15 11:57 | 34.20536 | 50.71947 | 35123 ft | 492 kts | 170° |
| 2026-04-15 11:58 | 34.14059 | 50.74690 | 35135 ft | 492 kts | 170° |
| 2026-04-15 11:58 | 34.07634 | 50.77403 | 35146 ft | 492 kts | 170° |
| 2026-04-15 11:59 | 34.01153 | 50.80130 | 35146 ft | 493 kts | 169° |
| 2026-04-15 11:59 | 33.94704 | 50.82846 | 35162 ft | 492 kts | 170° |
| 2026-04-15 12:00 | 33.88230 | 50.85563 | 35156 ft | 491 kts | 170° |
| 2026-04-15 12:00 | 33.81811 | 50.88251 | 35164 ft | 491 kts | 170° |
| 2026-04-15 12:01 | 33.75358 | 50.90951 | 35182 ft | 491 kts | 169° |
| 2026-04-15 12:01 | 33.68898 | 50.93644 | 35189 ft | 494 kts | 169° |
| 2026-04-15 12:02 | 33.62386 | 50.96372 | 35198 ft | 494 kts | 169° |
| 2026-04-15 12:02 | 33.55899 | 50.99068 | 35191 ft | 494 kts | 169° |
| 2026-04-15 12:03 | 33.49405 | 51.01775 | 35200 ft | 492 kts | 169° |
| 2026-04-15 12:03 | 33.42919 | 51.04470 | 35362 ft | 493 kts | 169° |
| 2026-04-15 12:03 | 33.39713 | 51.05803 | 35175 ft | 494 kts | 169° |
| 2026-04-15 12:04 | 33.36450 | 51.07154 | 35177 ft | 495 kts | 169° |
| 2026-04-15 12:04 | 33.33199 | 51.08501 | 35340 ft | 494 kts | 169° |
| 2026-04-15 12:04 | 33.29948 | 51.09846 | 35237 ft | 495 kts | 169° |
| 2026-04-15 12:05 | 33.23445 | 51.12539 | 35198 ft | 494 kts | 169° |
| 2026-04-15 12:05 | 33.16958 | 51.15212 | 35175 ft | 496 kts | 169° |
| 2026-04-15 12:06 | 33.10455 | 51.17889 | 35180 ft | 497 kts | 169° |
| 2026-04-15 12:06 | 33.03903 | 51.20588 | 35178 ft | 496 kts | 168° |
| 2026-04-15 12:07 | 32.97403 | 51.23259 | 35180 ft | 495 kts | 168° |
| 2026-04-15 12:07 | 32.90879 | 51.25930 | 35183 ft | 496 kts | 168° |
| 2026-04-15 12:08 | 32.84360 | 51.28597 | 35179 ft | 495 kts | 168° |
| 2026-04-15 12:08 | 32.77818 | 51.31270 | 35180 ft | 496 kts | 168° |
| 2026-04-15 12:09 | 32.71302 | 51.33934 | 35179 ft | 496 kts | 168° |
| 2026-04-15 12:09 | 32.64787 | 51.36595 | 35187 ft | 495 kts | 168° |
| 2026-04-15 12:10 | 32.58290 | 51.39241 | 35182 ft | 495 kts | 168° |
| 2026-04-15 12:10 | 32.51776 | 51.41889 | 35173 ft | 495 kts | 168° |
| 2026-04-15 12:11 | 32.45275 | 51.44527 | 35184 ft | 496 kts | 168° |
| 2026-04-15 12:11 | 32.38752 | 51.47170 | 35184 ft | 496 kts | 167° |
| 2026-04-15 12:12 | 32.32212 | 51.49820 | 35192 ft | 495 kts | 167° |
| 2026-04-15 12:12 | 32.25706 | 51.52448 | 35192 ft | 496 kts | 167° |
| 2026-04-15 12:13 | 32.19202 | 51.55075 | 35202 ft | 495 kts | 168° |
| 2026-04-15 12:13 | 32.12661 | 51.57709 | 35204 ft | 495 kts | 167° |
| 2026-04-15 12:14 | 32.06157 | 51.60323 | 35210 ft | 496 kts | 167° |
| 2026-04-15 12:14 | 31.99631 | 51.62949 | 35218 ft | 495 kts | 167° |
| 2026-04-15 12:15 | 31.93131 | 51.65561 | 35219 ft | 494 kts | 168° |
| 2026-04-15 12:15 | 31.86622 | 51.68187 | 35224 ft | 494 kts | 167° |
| 2026-04-15 12:16 | 31.80137 | 51.70785 | 35237 ft | 493 kts | 167° |
| 2026-04-15 12:16 | 31.73658 | 51.73371 | 35228 ft | 494 kts | 167° |
| 2026-04-15 12:17 | 31.67140 | 51.75979 | 35235 ft | 494 kts | 167° |
| 2026-04-15 12:17 | 31.60652 | 51.78569 | 35249 ft | 493 kts | 167° |
| 2026-04-15 12:18 | 31.54154 | 51.81156 | 35259 ft | 492 kts | 167° |
| 2026-04-15 12:18 | 31.47690 | 51.83726 | 35265 ft | 491 kts | 167° |
| 2026-04-15 12:19 | 31.41257 | 51.86279 | 35275 ft | 490 kts | 167° |
| 2026-04-15 12:19 | 31.34768 | 51.88851 | 35275 ft | 490 kts | 167° |
| 2026-04-15 12:20 | 31.28328 | 51.91408 | 35277 ft | 490 kts | 166° |
| 2026-04-15 12:20 | 31.21872 | 51.93963 | 35290 ft | 489 kts | 167° |
| 2026-04-15 12:21 | 31.15460 | 51.96493 | 35291 ft | 489 kts | 166° |
| 2026-04-15 12:21 | 31.08986 | 51.99046 | 35309 ft | 487 kts | 166° |
| 2026-04-15 12:22 | 31.02588 | 52.01566 | 35321 ft | 486 kts | 166° |
| 2026-04-15 12:22 | 30.96179 | 52.04082 | 35315 ft | 486 kts | 166° |
| 2026-04-15 12:23 | 30.89781 | 52.06594 | 35315 ft | 483 kts | 166° |
| 2026-04-15 12:23 | 30.83405 | 52.09082 | 35311 ft | 483 kts | 167° |
| 2026-04-15 12:24 | 30.77030 | 52.11574 | 35301 ft | 481 kts | 167° |
| 2026-04-15 12:24 | 30.70703 | 52.14041 | 35312 ft | 481 kts | 167° |
| 2026-04-15 12:25 | 30.64388 | 52.16505 | 35297 ft | 479 kts | 167° |
| 2026-04-15 12:25 | 30.58073 | 52.18960 | 35291 ft | 476 kts | 167° |
| 2026-04-15 12:26 | 30.51804 | 52.21391 | 35264 ft | 474 kts | 167° |
| 2026-04-15 12:26 | 30.45576 | 52.23800 | 35248 ft | 472 kts | 167° |
| 2026-04-15 12:27 | 30.39300 | 52.26221 | 35246 ft | 474 kts | 167° |
| 2026-04-15 12:27 | 30.33083 | 52.28622 | 35214 ft | 471 kts | 167° |
| 2026-04-15 12:28 | 30.26879 | 52.31021 | 35211 ft | 469 kts | 167° |
| 2026-04-15 12:28 | 30.20676 | 52.33409 | 35219 ft | 469 kts | 167° |
| 2026-04-15 12:29 | 30.14501 | 52.35784 | 35204 ft | 465 kts | 167° |
| 2026-04-15 12:29 | 30.08403 | 52.38127 | 35205 ft | 464 kts | 167° |
| 2026-04-15 12:30 | 30.02251 | 52.40479 | 35196 ft | 464 kts | 167° |
| 2026-04-15 12:30 | 29.96176 | 52.42811 | 35188 ft | 462 kts | 167° |
| 2026-04-15 12:31 | 29.90073 | 52.45148 | 35187 ft | 460 kts | 168° |
| 2026-04-15 12:31 | 29.83989 | 52.47458 | 35189 ft | 459 kts | 167° |
| 2026-04-15 12:32 | 29.77961 | 52.49759 | 35188 ft | 456 kts | 168° |
| 2026-04-15 12:32 | 29.71946 | 52.52052 | 35185 ft | 453 kts | 168° |
| 2026-04-15 12:33 | 29.65976 | 52.54321 | 35181 ft | 452 kts | 168° |
| 2026-04-15 12:33 | 29.59985 | 52.56598 | 35170 ft | 452 kts | 168° |
| 2026-04-15 12:34 | 29.54089 | 52.59199 | 35163 ft | 456 kts | 161° |
| 2026-04-15 12:34 | 29.48457 | 52.62552 | 35159 ft | 458 kts | 155° |
| 2026-04-15 12:35 | 29.42952 | 52.66256 | 35152 ft | 457 kts | 156° |
| 2026-04-15 12:35 | 29.37496 | 52.69950 | 35156 ft | 457 kts | 156° |
| 2026-04-15 12:36 | 29.32029 | 52.73618 | 35156 ft | 455 kts | 156° |
| 2026-04-15 12:36 | 29.26616 | 52.77233 | 35151 ft | 450 kts | 156° |
| 2026-04-15 12:37 | 29.21171 | 52.80852 | 35157 ft | 450 kts | 156° |
| 2026-04-15 12:37 | 29.15781 | 52.84434 | 35169 ft | 451 kts | 156° |
| 2026-04-15 12:38 | 29.10385 | 52.88018 | 35177 ft | 448 kts | 156° |
| 2026-04-15 12:38 | 29.05001 | 52.91592 | 35179 ft | 448 kts | 156° |
| 2026-04-15 12:39 | 28.99591 | 52.95185 | 35179 ft | 448 kts | 156° |
| 2026-04-15 12:39 | 28.94235 | 52.98736 | 35171 ft | 447 kts | 156° |
| 2026-04-15 12:40 | 28.88824 | 53.02316 | 35163 ft | 449 kts | 156° |
| 2026-04-15 12:40 | 28.83449 | 53.05854 | 35166 ft | 446 kts | 156° |
| 2026-04-15 12:41 | 28.78068 | 53.09398 | 35181 ft | 450 kts | 156° |
| 2026-04-15 12:41 | 28.75340 | 53.11196 | 35341 ft | 452 kts | 156° |
| 2026-04-15 12:41 | 28.72624 | 53.12987 | 35609 ft | 452 kts | 156° |
| 2026-04-15 12:41 | 28.69894 | 53.14788 | 35904 ft | 451 kts | 156° |
| 2026-04-15 12:42 | 28.67179 | 53.16577 | 36139 ft | 452 kts | 157° |
| 2026-04-15 12:42 | 28.64471 | 53.18354 | 36384 ft | 451 kts | 156° |
| 2026-04-15 12:42 | 28.62610 | 53.19579 | 36545 ft | 451 kts | 156° |
| 2026-04-15 12:42 | 28.59899 | 53.21359 | 36747 ft | 452 kts | 156° |
| 2026-04-15 12:43 | 28.57190 | 53.23122 | 36912 ft | 452 kts | 158° |
| 2026-04-15 12:43 | 28.51527 | 53.26209 | 37040 ft | 446 kts | 165° |
| 2026-04-15 12:44 | 28.45702 | 53.28533 | 37075 ft | 445 kts | 169° |
| 2026-04-15 12:44 | 28.42719 | 53.29593 | 37245 ft | 445 kts | 169° |
| 2026-04-15 12:44 | 28.39795 | 53.30631 | 37472 ft | 445 kts | 169° |
| 2026-04-15 12:44 | 28.36825 | 53.31687 | 37695 ft | 444 kts | 169° |
| 2026-04-15 12:45 | 28.33881 | 53.32738 | 37903 ft | 443 kts | 169° |
| 2026-04-15 12:45 | 28.30941 | 53.33787 | 38071 ft | 443 kts | 169° |
| 2026-04-15 12:45 | 28.27987 | 53.34835 | 38188 ft | 444 kts | 169° |
| 2026-04-15 12:45 | 28.25069 | 53.35877 | 38318 ft | 445 kts | 170° |
| 2026-04-15 12:46 | 28.22109 | 53.36928 | 38433 ft | 445 kts | 169° |
| 2026-04-15 12:46 | 28.16178 | 53.39034 | 38599 ft | 448 kts | 169° |
| 2026-04-15 12:46 | 28.13195 | 53.40095 | 38762 ft | 447 kts | 169° |
| 2026-04-15 12:47 | 28.10238 | 53.41146 | 38939 ft | 446 kts | 169° |
| 2026-04-15 12:47 | 28.04317 | 53.43248 | 38965 ft | 447 kts | 169° |
| 2026-04-15 12:48 | 27.98347 | 53.45363 | 38979 ft | 449 kts | 169° |
| 2026-04-15 12:48 | 27.92413 | 53.47465 | 38971 ft | 447 kts | 169° |
| 2026-04-15 12:49 | 27.86496 | 53.49553 | 38954 ft | 446 kts | 169° |
| 2026-04-15 12:49 | 27.80596 | 53.51628 | 38933 ft | 447 kts | 169° |
| 2026-04-15 12:50 | 27.74714 | 53.53701 | 38911 ft | 444 kts | 169° |
| 2026-04-15 12:50 | 27.68823 | 53.55775 | 38908 ft | 444 kts | 169° |
| 2026-04-15 12:51 | 27.62897 | 53.57859 | 38907 ft | 443 kts | 169° |
| 2026-04-15 12:51 | 27.57037 | 53.59919 | 38911 ft | 444 kts | 169° |
| 2026-04-15 12:52 | 27.51116 | 53.61997 | 38910 ft | 442 kts | 169° |
| 2026-04-15 12:52 | 27.45254 | 53.64037 | 38911 ft | 442 kts | 169° |
| 2026-04-15 12:53 | 27.39385 | 53.66045 | 38898 ft | 440 kts | 169° |
| 2026-04-15 12:53 | 27.33541 | 53.68064 | 38890 ft | 439 kts | 169° |
| 2026-04-15 12:54 | 27.27707 | 53.70065 | 38878 ft | 438 kts | 169° |
| 2026-04-15 12:54 | 27.21904 | 53.72046 | 38871 ft | 438 kts | 169° |
| 2026-04-15 12:55 | 27.16066 | 53.74032 | 38865 ft | 438 kts | 169° |
| 2026-04-15 12:55 | 27.10214 | 53.76021 | 38858 ft | 438 kts | 170° |
| 2026-04-15 12:56 | 27.04379 | 53.78001 | 38857 ft | 437 kts | 169° |
| 2026-04-15 12:56 | 26.98594 | 53.79962 | 38849 ft | 436 kts | 169° |
| 2026-04-15 12:57 | 26.92789 | 53.81925 | 38840 ft | 435 kts | 169° |
| 2026-04-15 12:57 | 26.86960 | 53.83894 | 38843 ft | 435 kts | 169° |
| 2026-04-15 12:58 | 26.81183 | 53.85846 | 38838 ft | 434 kts | 169° |
| 2026-04-15 12:58 | 26.75401 | 53.87803 | 38831 ft | 434 kts | 169° |
| 2026-04-15 12:59 | 26.66730 | 53.90729 | 37734 ft | 430 kts | 169° |
| 2026-04-15 12:59 | 26.63875 | 53.91694 | 37123 ft | 427 kts | 169° |
| 2026-04-15 12:59 | 26.61048 | 53.92668 | 36475 ft | 426 kts | 167° |
| 2026-04-15 13:00 | 26.58286 | 53.93795 | 35790 ft | 429 kts | 164° |
| 2026-04-15 13:00 | 26.55533 | 53.95150 | 35090 ft | 432 kts | 160° |
| 2026-04-15 13:00 | 26.52855 | 53.96714 | 34415 ft | 434 kts | 156° |
| 2026-04-15 13:00 | 26.50293 | 53.98461 | 33709 ft | 437 kts | 152° |
| 2026-04-15 13:01 | 26.47790 | 54.00436 | 33057 ft | 441 kts | 148° |
| 2026-04-15 13:01 | 26.45403 | 54.02599 | 32386 ft | 444 kts | 145° |
| 2026-04-15 13:01 | 26.43074 | 54.04852 | 31711 ft | 446 kts | 144° |
| 2026-04-15 13:01 | 26.40757 | 54.07114 | 30999 ft | 448 kts | 144° |
| 2026-04-15 13:02 | 26.38402 | 54.09407 | 30273 ft | 449 kts | 144° |
| 2026-04-15 13:02 | 26.36060 | 54.11679 | 29520 ft | 452 kts | 143° |
| 2026-04-15 13:02 | 26.33684 | 54.13976 | 28773 ft | 454 kts | 144° |
| 2026-04-15 13:02 | 26.31245 | 54.16206 | 28262 ft | 448 kts | 146° |
| 2026-04-15 13:03 | 26.28818 | 54.18351 | 27820 ft | 442 kts | 146° |
| 2026-04-15 13:03 | 26.26453 | 54.20499 | 27350 ft | 439 kts | 144° |
| 2026-04-15 13:03 | 26.24133 | 54.22691 | 26858 ft | 435 kts | 144° |
| 2026-04-15 13:03 | 26.21855 | 54.24846 | 26379 ft | 432 kts | 144° |
| 2026-04-15 13:04 | 26.19573 | 54.27009 | 25885 ft | 428 kts | 144° |
| 2026-04-15 13:04 | 26.17323 | 54.29138 | 25388 ft | 425 kts | 144° |
| 2026-04-15 13:04 | 26.15085 | 54.31250 | 24906 ft | 421 kts | 144° |
| 2026-04-15 13:04 | 26.12853 | 54.33359 | 24435 ft | 418 kts | 144° |
| 2026-04-15 13:05 | 26.10658 | 54.35430 | 23950 ft | 415 kts | 144° |
| 2026-04-15 13:05 | 26.08445 | 54.37518 | 23458 ft | 412 kts | 144° |
| 2026-04-15 13:05 | 26.06270 | 54.39571 | 22979 ft | 409 kts | 144° |
| 2026-04-15 13:05 | 26.04129 | 54.41586 | 22511 ft | 407 kts | 144° |
| 2026-04-15 13:06 | 26.01963 | 54.43624 | 22034 ft | 405 kts | 144° |
| 2026-04-15 13:06 | 25.99816 | 54.45647 | 21556 ft | 403 kts | 144° |
| 2026-04-15 13:06 | 25.97710 | 54.47627 | 21105 ft | 401 kts | 144° |
| 2026-04-15 13:06 | 25.95578 | 54.49632 | 20629 ft | 399 kts | 144° |
| 2026-04-15 13:07 | 25.93463 | 54.51618 | 20141 ft | 398 kts | 144° |
| 2026-04-15 13:07 | 25.91404 | 54.53640 | 19658 ft | 399 kts | 141° |
| 2026-04-15 13:07 | 25.89412 | 54.55833 | 19176 ft | 399 kts | 138° |
| 2026-04-15 13:07 | 25.87485 | 54.58036 | 18704 ft | 398 kts | 138° |
| 2026-04-15 13:08 | 25.85570 | 54.60235 | 18232 ft | 396 kts | 137° |
| 2026-04-15 13:08 | 25.83670 | 54.62420 | 17752 ft | 395 kts | 138° |
| 2026-04-15 13:08 | 25.81773 | 54.64597 | 17272 ft | 394 kts | 138° |
| 2026-04-15 13:08 | 25.79855 | 54.66787 | 16787 ft | 392 kts | 139° |
| 2026-04-15 13:09 | 25.77912 | 54.68873 | 16302 ft | 390 kts | 140° |
| 2026-04-15 13:09 | 25.75959 | 54.70933 | 15815 ft | 389 kts | 140° |
| 2026-04-15 13:09 | 25.74013 | 54.72977 | 15332 ft | 388 kts | 140° |
| 2026-04-15 13:09 | 25.72053 | 54.75033 | 14852 ft | 386 kts | 140° |
| 2026-04-15 13:10 | 25.70093 | 54.77089 | 14365 ft | 385 kts | 139° |
| 2026-04-15 13:10 | 25.68151 | 54.79123 | 13881 ft | 384 kts | 139° |
| 2026-04-15 13:10 | 25.66231 | 54.81136 | 13400 ft | 382 kts | 139° |
| 2026-04-15 13:10 | 25.64319 | 54.83141 | 12927 ft | 381 kts | 139° |
| 2026-04-15 13:11 | 25.62428 | 54.85206 | 12441 ft | 381 kts | 134° |
| 2026-04-15 13:11 | 25.60855 | 54.87570 | 12069 ft | 378 kts | 122° |
| 2026-04-15 13:11 | 25.59698 | 54.90135 | 11986 ft | 376 kts | 115° |
| 2026-04-15 13:11 | 25.58684 | 54.92773 | 11974 ft | 361 kts | 113° |
| 2026-04-15 13:12 | 25.57745 | 54.95277 | 11951 ft | 346 kts | 113° |
| 2026-04-15 13:12 | 25.56819 | 54.97712 | 11692 ft | 339 kts | 113° |
| 2026-04-15 13:12 | 25.55908 | 55.00069 | 11428 ft | 333 kts | 114° |
| 2026-04-15 13:12 | 25.54993 | 55.02417 | 11185 ft | 328 kts | 114° |
| 2026-04-15 13:13 | 25.53985 | 55.04643 | 10983 ft | 319 kts | 120° |
| 2026-04-15 13:13 | 25.52912 | 55.06736 | 10945 ft | 306 kts | 121° |
| 2026-04-15 13:13 | 25.51869 | 55.08725 | 10779 ft | 298 kts | 121° |
| 2026-04-15 13:13 | 25.50836 | 55.10693 | 10548 ft | 293 kts | 120° |
| 2026-04-15 13:14 | 25.49809 | 55.12658 | 10234 ft | 292 kts | 120° |
| 2026-04-15 13:14 | 25.48789 | 55.14616 | 9693 ft | 300 kts | 120° |
| 2026-04-15 13:14 | 25.47741 | 55.16632 | 9095 ft | 309 kts | 120° |
| 2026-04-15 13:14 | 25.46662 | 55.18694 | 8707 ft | 309 kts | 122° |
| 2026-04-15 13:15 | 25.45435 | 55.20634 | 8384 ft | 307 kts | 129° |
| 2026-04-15 13:15 | 25.44038 | 55.22425 | 8075 ft | 304 kts | 133° |
| 2026-04-15 13:15 | 25.42630 | 55.24135 | 7986 ft | 299 kts | 133° |
| 2026-04-15 13:15 | 25.41253 | 55.25799 | 7973 ft | 284 kts | 133° |
| 2026-04-15 13:16 | 25.39955 | 55.27377 | 7969 ft | 270 kts | 133° |
| 2026-04-15 13:16 | 25.38736 | 55.28868 | 7970 ft | 259 kts | 133° |
| 2026-04-15 13:16 | 25.37522 | 55.30354 | 7972 ft | 259 kts | 133° |
| 2026-04-15 13:16 | 25.36311 | 55.31825 | 7967 ft | 259 kts | 136° |
| 2026-04-15 13:17 | 25.34924 | 55.33090 | 7969 ft | 257 kts | 150° |
| 2026-04-15 13:17 | 25.33380 | 55.34065 | 7990 ft | 256 kts | 154° |
| 2026-04-15 13:17 | 25.31786 | 55.34978 | 7988 ft | 256 kts | 155° |
| 2026-04-15 13:17 | 25.30191 | 55.35883 | 7976 ft | 255 kts | 155° |
| 2026-04-15 13:18 | 25.28637 | 55.36773 | 7775 ft | 252 kts | 155° |
| 2026-04-15 13:18 | 25.27071 | 55.37679 | 7450 ft | 253 kts | 155° |
| 2026-04-15 13:18 | 25.25526 | 55.38580 | 7144 ft | 254 kts | 155° |
| 2026-04-15 13:18 | 25.23961 | 55.39494 | 6860 ft | 253 kts | 155° |
| 2026-04-15 13:19 | 25.22404 | 55.40405 | 6579 ft | 252 kts | 155° |
| 2026-04-15 13:19 | 25.20855 | 55.41312 | 6301 ft | 251 kts | 155° |
| 2026-04-15 13:19 | 25.19312 | 55.42215 | 6030 ft | 250 kts | 155° |
| 2026-04-15 13:19 | 25.17767 | 55.43119 | 5763 ft | 249 kts | 155° |
| 2026-04-15 13:20 | 25.16251 | 55.44006 | 5468 ft | 248 kts | 155° |
| 2026-04-15 13:20 | 25.14747 | 55.44884 | 5262 ft | 239 kts | 155° |
| 2026-04-15 13:20 | 25.13303 | 55.45731 | 5083 ft | 230 kts | 155° |
| 2026-04-15 13:20 | 25.11918 | 55.46560 | 4873 ft | 224 kts | 149° |
| 2026-04-15 13:21 | 25.10753 | 55.47685 | 4573 ft | 224 kts | 129° |
| 2026-04-15 13:21 | 25.09885 | 55.49112 | 4253 ft | 220 kts | 122° |
| 2026-04-15 13:21 | 25.09122 | 55.50551 | 3857 ft | 219 kts | 121° |
| 2026-04-15 13:21 | 25.08349 | 55.52012 | 3334 ft | 224 kts | 121° |
| 2026-04-15 13:22 | 25.07551 | 55.53489 | 2921 ft | 223 kts | 122° |
| 2026-04-15 13:22 | 25.06750 | 55.54950 | 2576 ft | 223 kts | 120° |
| 2026-04-15 13:22 | 25.06344 | 55.56564 | 2229 ft | 221 kts | 87° |
| 2026-04-15 13:22 | 25.06829 | 55.58087 | 2012 ft | 209 kts | 45° |
| 2026-04-15 13:23 | 25.08006 | 55.58912 | 2004 ft | 197 kts | 6° |
| 2026-04-15 13:23 | 25.09322 | 55.58785 | 2018 ft | 186 kts | 337° |
| 2026-04-15 13:23 | 25.10524 | 55.58289 | 2015 ft | 184 kts | 332° |
| 2026-04-15 13:23 | 25.11711 | 55.57746 | 2008 ft | 184 kts | 331° |
| 2026-04-15 13:24 | 25.12902 | 55.57192 | 2003 ft | 183 kts | 329° |
| 2026-04-15 13:24 | 25.13909 | 55.56380 | 2006 ft | 177 kts | 310° |
| 2026-04-15 13:24 | 25.14645 | 55.55412 | 1973 ft | 154 kts | 302° |
| 2026-04-15 13:24 | 25.15234 | 55.54481 | 1977 ft | 145 kts | 300° |
| 2026-04-15 13:25 | 25.15787 | 55.53551 | 1988 ft | 144 kts | 299° |
| 2026-04-15 13:25 | 25.16330 | 55.52607 | 2000 ft | 144 kts | 298° |
| 2026-04-15 13:25 | 25.16861 | 55.51662 | 2002 ft | 143 kts | 299° |
| 2026-04-15 13:25 | 25.17376 | 55.50737 | 2003 ft | 143 kts | 299° |
| 2026-04-15 13:26 | 25.17897 | 55.49795 | 2005 ft | 142 kts | 299° |
| 2026-04-15 13:26 | 25.18410 | 55.48866 | 1957 ft | 144 kts | 298° |
| 2026-04-15 13:26 | 25.18932 | 55.47922 | 1768 ft | 143 kts | 298° |
| 2026-04-15 13:26 | 25.19452 | 55.46980 | 1581 ft | 143 kts | 298° |
| 2026-04-15 13:27 | 25.19966 | 55.46048 | 1401 ft | 143 kts | 297° |
| 2026-04-15 13:27 | 25.20487 | 55.45105 | 1217 ft | 139 kts | 298° |
| 2026-04-15 13:27 | 25.20963 | 55.44248 | 1011 ft | 126 kts | 298° |
| 2026-04-15 13:27 | 25.21412 | 55.43434 | 854 ft | 124 kts | 298° |
| 2026-04-15 13:28 | 25.21860 | 55.42622 | 722 ft | 123 kts | 298° |
| 2026-04-15 13:28 | 25.22302 | 55.41802 | 571 ft | 124 kts | 298° |
| 2026-04-15 13:28 | 25.22762 | 55.40986 | 379 ft | 125 kts | 298° |
| 2026-04-15 13:28 | 25.23220 | 55.40163 | 234 ft | 126 kts | 298° |
| 2026-04-15 13:29 | 25.23680 | 55.39334 | 78 ft | 126 kts | 298° |
| 2026-04-15 13:29 | 25.24091 | 55.38578 | 55 ft | 102 kts | 303° |
| 2026-04-15 13:29 | 25.24408 | 55.38005 | 52 ft | 72 kts | 302° |
| 2026-04-15 13:29 | 25.24639 | 55.37601 | 48 ft | 50 kts | 306° |
| 2026-04-15 13:30 | 25.24760 | 55.37357 | 48 ft | 27 kts | 287° |
| 2026-04-15 13:30 | 25.24784 | 55.37177 | 45 ft | 13 kts | 272° |
| 2026-04-15 13:30 | 25.24786 | 55.37107 | 45 ft | 8 kts | 271° |
| 2026-04-15 13:30 | 25.24788 | 55.37037 | 45 ft | 9 kts | 271° |
| 2026-04-15 13:31 | 25.24792 | 55.36986 | 44 ft | 7 kts | 281° |
| 2026-04-15 13:31 | 25.24809 | 55.36932 | 44 ft | 7 kts | 300° |
| 2026-04-15 13:31 | 25.24835 | 55.36883 | 45 ft | 7 kts | 296° |
| 2026-04-15 13:31 | 25.24854 | 55.36824 | 45 ft | 8 kts | 286° |
| 2026-04-15 13:32 | 25.24866 | 55.36759 | 45 ft | 9 kts | 280° |
| 2026-04-15 13:32 | 25.24882 | 55.36690 | 45 ft | 9 kts | 291° |
| 2026-04-15 13:32 | 25.24915 | 55.36620 | 44 ft | 11 kts | 300° |
| 2026-04-15 13:32 | 25.24958 | 55.36541 | 42 ft | 13 kts | 302° |
| 2026-04-15 13:33 | 25.25014 | 55.36441 | 37 ft | 16 kts | 302° |
| 2026-04-15 13:33 | 25.25081 | 55.36320 | 32 ft | 19 kts | 301° |
| 2026-04-15 13:33 | 25.25145 | 55.36203 | 37 ft | 15 kts | 302° |
| 2026-04-15 13:33 | 25.25213 | 55.36083 | 36 ft | 21 kts | 301° |
| 2026-04-15 13:34 | 25.25284 | 55.35952 | 34 ft | 17 kts | 301° |
| 2026-04-15 13:34 | 25.25344 | 55.35846 | 35 ft | 16 kts | 301° |
| 2026-04-15 13:34 | 25.25404 | 55.35739 | 34 ft | 17 kts | 301° |
| 2026-04-15 13:34 | 25.25468 | 55.35622 | 31 ft | 18 kts | 302° |
| 2026-04-15 13:35 | 25.25537 | 55.35497 | 27 ft | 19 kts | 302° |
| 2026-04-15 13:35 | 25.25605 | 55.35375 | 30 ft | 17 kts | 300° |
| 2026-04-15 13:35 | 25.25665 | 55.35265 | 31 ft | 16 kts | 301° |
| 2026-04-15 13:35 | 25.25728 | 55.35153 | 29 ft | 17 kts | 300° |
| 2026-04-15 13:36 | 25.25788 | 55.35039 | 29 ft | 16 kts | 301° |
| 2026-04-15 13:36 | 25.25849 | 55.34929 | 29 ft | 16 kts | 301° |
| 2026-04-15 13:36 | 25.25908 | 55.34821 | 28 ft | 16 kts | 301° |
| 2026-04-15 13:36 | 25.25940 | 55.34764 | 27 ft | 5 kts | 301° |
| 2026-04-15 13:37 | 25.25951 | 55.34742 | 27 ft | 2 kts | 295° |
| 2026-04-15 13:37 | 25.25941 | 55.34724 | 27 ft | 4 kts | 220° |
| 2026-04-15 13:37 | 25.25911 | 55.34705 | 26 ft | 5 kts | 211° |
| 2026-04-15 13:37 | 25.25874 | 55.34679 | 26 ft | 6 kts | 211° |
| 2026-04-15 13:38 | 25.25829 | 55.34650 | 26 ft | 7 kts | 211° |
| 2026-04-15 13:38 | 25.25804 | 55.34633 | 26 ft | 1 kts | 211° |
| 2026-04-15 13:38 | 25.25799 | 55.34629 | 26 ft | 0 kts | 211° |
| 2026-04-15 13:38 | 25.25798 | 55.34629 | 26 ft | 0 kts | 211° |